sensor_id;sensor_type;location;lat;lon;timestamp;pressure;altitude;pressure_sealevel;temperature;humidity
59240;BME280;45010;53.640;10.578;2023-04-28T00:02:39;101228.19;;;25.69;30.76
59240;BME280;45010;53.640;10.578;2023-04-28T00:05:39;101231.06;;;25.67;30.92
59240;BME280;45010;53.640;10.578;2023-04-28T00:08:40;101227.00;;;25.64;30.84
59240;BME280;45010;53.640;10.578;2023-04-28T00:11:43;101234.19;;;25.64;30.67
59240;BME280;45010;53.640;10.578;2023-04-28T00:14:43;101227.44;;;25.61;30.77
59240;BME280;45010;53.640;10.578;2023-04-28T00:17:44;101227.91;;;25.58;30.82
59240;BME280;45010;53.640;10.578;2023-04-28T00:20:44;101226.28;;;25.57;30.76
59240;BME280;45010;53.640;10.578;2023-04-28T00:23:45;101217.66;;;25.55;30.90
59240;BME280;45010;53.640;10.578;2023-04-28T00:26:45;101222.41;;;25.53;30.77
59240;BME280;45010;53.640;10.578;2023-04-28T00:29:45;101216.47;;;25.51;30.85
59240;BME280;45010;53.640;10.578;2023-04-28T00:32:46;101218.53;;;25.49;30.82
59240;BME280;45010;53.640;10.578;2023-04-28T00:35:46;101216.91;;;25.48;30.90
59240;BME280;45010;53.640;10.578;2023-04-28T00:38:46;101214.69;;;25.45;30.91
59240;BME280;45010;53.640;10.578;2023-04-28T00:41:47;101206.06;;;25.43;30.88
59240;BME280;45010;53.640;10.578;2023-04-28T00:44:47;101209.78;;;25.42;30.83
59240;BME280;45010;53.640;10.578;2023-04-28T00:47:48;101202.81;;;25.41;30.65
59240;BME280;45010;53.640;10.578;2023-04-28T00:50:48;101198.53;;;25.39;30.93
59240;BME280;45010;53.640;10.578;2023-04-28T00:53:49;101174.53;;;25.21;30.84
59240;BME280;45010;53.640;10.578;2023-04-28T00:56:50;101195.25;;;25.37;30.78
59240;BME280;45010;53.640;10.578;2023-04-28T00:59:50;101194.09;;;25.33;30.92
59240;BME280;45010;53.640;10.578;2023-04-28T01:02:52;101182.69;;;25.26;30.95
59240;BME280;45010;53.640;10.578;2023-04-28T01:05:53;101189.19;;;25.30;30.81
59240;BME280;45010;53.640;10.578;2023-04-28T01:08:54;101193.72;;;25.30;30.96
59240;BME280;45010;53.640;10.578;2023-04-28T01:11:55;101188.59;;;25.28;31.09
59240;BME280;45010;53.640;10.578;2023-04-28T01:14:55;101190.69;;;25.26;30.91
59240;BME280;45010;53.640;10.578;2023-04-28T01:17:56;101188.25;;;25.24;30.96
59240;BME280;45010;53.640;10.578;2023-04-28T01:20:56;101193.78;;;25.23;30.99
59240;BME280;45010;53.640;10.578;2023-04-28T01:23:57;101178.22;;;25.20;31.00
59240;BME280;45010;53.640;10.578;2023-04-28T01:26:58;101164.75;;;25.15;30.86
59240;BME280;45010;53.640;10.578;2023-04-28T01:29:58;101181.94;;;25.19;30.92
59240;BME280;45010;53.640;10.578;2023-04-28T01:32:58;101182.97;;;25.18;30.98
59240;BME280;45010;53.640;10.578;2023-04-28T01:35:58;101168.81;;;25.17;30.92
59240;BME280;45010;53.640;10.578;2023-04-28T01:38:59;101177.03;;;25.16;30.99
59240;BME280;45010;53.640;10.578;2023-04-28T01:41:59;101164.00;;;25.07;30.98
59240;BME280;45010;53.640;10.578;2023-04-28T01:45:01;101177.47;;;25.12;30.84
59240;BME280;45010;53.640;10.578;2023-04-28T01:48:02;101168.91;;;25.10;31.05
59240;BME280;45010;53.640;10.578;2023-04-28T01:51:02;101172.59;;;25.09;31.07
59240;BME280;45010;53.640;10.578;2023-04-28T01:54:03;101161.31;;;25.07;30.92
59240;BME280;45010;53.640;10.578;2023-04-28T01:57:04;101167.69;;;25.06;30.98
59240;BME280;45010;53.640;10.578;2023-04-28T02:00:05;101160.75;;;25.05;31.06
59240;BME280;45010;53.640;10.578;2023-04-28T02:03:06;101154.00;;;25.03;30.92
59240;BME280;45010;53.640;10.578;2023-04-28T02:06:06;101148.88;;;25.01;30.94
59240;BME280;45010;53.640;10.578;2023-04-28T02:09:06;101140.28;;;24.99;30.99
59240;BME280;45010;53.640;10.578;2023-04-28T02:12:07;101149.34;;;24.98;31.23
59240;BME280;45010;53.640;10.578;2023-04-28T02:15:07;101153.03;;;24.97;31.00
59240;BME280;45010;53.640;10.578;2023-04-28T02:18:09;101146.09;;;24.96;30.97
59240;BME280;45010;53.640;10.578;2023-04-28T02:21:10;101141.59;;;24.90;31.08
59240;BME280;45010;53.640;10.578;2023-04-28T02:24:11;101148.13;;;24.94;31.14
59240;BME280;45010;53.640;10.578;2023-04-28T02:27:11;101144.06;;;24.91;31.11
59240;BME280;45010;53.640;10.578;2023-04-28T02:30:12;101148.59;;;24.91;31.17
59240;BME280;45010;53.640;10.578;2023-04-28T02:33:12;101150.66;;;24.89;31.11
59240;BME280;45010;53.640;10.578;2023-04-28T02:36:13;101145.56;;;24.87;31.07
59240;BME280;45010;53.640;10.578;2023-04-28T02:39:13;101137.78;;;24.85;31.01
59240;BME280;45010;53.640;10.578;2023-04-28T02:42:13;101140.44;;;24.85;31.00
59240;BME280;45010;53.640;10.578;2023-04-28T02:45:14;101134.50;;;24.83;31.16
59240;BME280;45010;53.640;10.578;2023-04-28T02:48:14;101130.22;;;24.82;31.03
59240;BME280;45010;53.640;10.578;2023-04-28T02:51:15;101137.59;;;24.80;31.26
59240;BME280;45010;53.640;10.578;2023-04-28T02:54:15;101125.31;;;24.79;31.10
59240;BME280;45010;53.640;10.578;2023-04-28T02:57:15;101123.06;;;24.76;31.14
59240;BME280;45010;53.640;10.578;2023-04-28T03:00:16;101112.25;;;24.71;31.06
59240;BME280;45010;53.640;10.578;2023-04-28T03:03:16;101121.22;;;24.77;31.05
59240;BME280;45010;53.640;10.578;2023-04-28T03:06:16;101081.66;;;24.55;31.17
59240;BME280;45010;53.640;10.578;2023-04-28T03:09:17;101040.56;;;24.25;31.12
59240;BME280;45010;53.640;10.578;2023-04-28T03:12:17;101115.53;;;24.73;30.86
59240;BME280;45010;53.640;10.578;2023-04-28T03:15:17;101102.41;;;24.71;31.04
59240;BME280;45010;53.640;10.578;2023-04-28T03:18:18;101096.25;;;24.71;30.97
59240;BME280;45010;53.640;10.578;2023-04-28T03:21:18;101093.00;;;24.69;31.15
59240;BME280;45010;53.640;10.578;2023-04-28T03:24:18;101092.16;;;24.68;30.97
59240;BME280;45010;53.640;10.578;2023-04-28T03:27:19;101073.81;;;24.60;30.97
59240;BME280;45010;53.640;10.578;2023-04-28T03:30:19;101080.13;;;24.66;30.99
59240;BME280;45010;53.640;10.578;2023-04-28T03:33:20;101080.13;;;24.66;30.83
59240;BME280;45010;53.640;10.578;2023-04-28T03:36:20;101088.34;;;24.64;31.06
59240;BME280;45010;53.640;10.578;2023-04-28T03:39:20;101064.41;;;24.57;31.08
59240;BME280;45010;53.640;10.578;2023-04-28T03:42:21;101068.03;;;24.63;31.00
59240;BME280;45010;53.640;10.578;2023-04-28T03:45:21;101061.88;;;24.63;30.94
59240;BME280;45010;53.640;10.578;2023-04-28T03:48:21;101057.81;;;24.60;30.91
59240;BME280;45010;53.640;10.578;2023-04-28T03:51:22;100978.78;;;24.10;31.08
59240;BME280;45010;53.640;10.578;2023-04-28T03:54:22;101066.03;;;24.58;30.98
59240;BME280;45010;53.640;10.578;2023-04-28T03:57:22;101066.03;;;24.58;31.03
59240;BME280;45010;53.640;10.578;2023-04-28T04:00:23;101055.34;;;24.58;31.03
59240;BME280;45010;53.640;10.578;2023-04-28T04:03:23;101038.63;;;24.51;30.95
59240;BME280;45010;53.640;10.578;2023-04-28T04:06:25;101051.06;;;24.57;31.04
59240;BME280;45010;53.640;10.578;2023-04-28T04:09:25;101044.16;;;24.50;30.99
59240;BME280;45010;53.640;10.578;2023-04-28T04:12:26;101043.97;;;24.51;31.15
59240;BME280;45010;53.640;10.578;2023-04-28T04:15:26;101048.84;;;24.54;30.91
59240;BME280;45010;53.640;10.578;2023-04-28T04:18:26;101047.22;;;24.53;31.08
59240;BME280;45010;53.640;10.578;2023-04-28T04:21:27;101050.91;;;24.52;31.11
59240;BME280;45010;53.640;10.578;2023-04-28T04:24:28;101048.50;;;24.51;30.95
59240;BME280;45010;53.640;10.578;2023-04-28T04:27:28;101043.38;;;24.49;31.25
59240;BME280;45010;53.640;10.578;2023-04-28T04:30:28;101041.59;;;24.43;30.91
59240;BME280;45010;53.640;10.578;2023-04-28T04:33:29;101046.03;;;24.49;30.96
59240;BME280;45010;53.640;10.578;2023-04-28T04:36:30;101044.41;;;24.48;31.01
59240;BME280;45010;53.640;10.578;2023-04-28T04:39:31;101040.09;;;24.47;31.34
59240;BME280;45010;53.640;10.578;2023-04-28T04:42:32;101005.44;;;24.28;31.24
59240;BME280;45010;53.640;10.578;2023-04-28T04:45:32;101028.84;;;24.45;31.13
59240;BME280;45010;53.640;10.578;2023-04-28T04:48:32;101039.50;;;24.45;31.16
59240;BME280;45010;53.640;10.578;2023-04-28T04:51:33;101029.31;;;24.42;31.05
59240;BME280;45010;53.640;10.578;2023-04-28T04:54:34;101031.72;;;24.43;31.25
59240;BME280;45010;53.640;10.578;2023-04-28T04:57:34;101029.31;;;24.42;31.39
59240;BME280;45010;53.640;10.578;2023-04-28T05:00:34;101016.56;;;24.44;31.16
59240;BME280;45010;53.640;10.578;2023-04-28T05:03:36;101003.09;;;24.39;31.72
59240;BME280;45010;53.640;10.578;2023-04-28T05:06:36;101014.94;;;24.43;31.17
59240;BME280;45010;53.640;10.578;2023-04-28T05:09:37;101009.00;;;24.41;31.29
59240;BME280;45010;53.640;10.578;2023-04-28T05:12:37;101003.66;;;24.41;31.23
59240;BME280;45010;53.640;10.578;2023-04-28T05:15:38;100995.66;;;24.41;31.27
59240;BME280;45010;53.640;10.578;2023-04-28T05:18:38;100999.38;;;24.40;31.23
59240;BME280;45010;53.640;10.578;2023-04-28T05:21:38;100925.41;;;23.98;31.40
59240;BME280;45010;53.640;10.578;2023-04-28T05:24:39;100983.38;;;24.40;31.61
59240;BME280;45010;53.640;10.578;2023-04-28T05:27:39;100988.72;;;24.40;31.27
59240;BME280;45010;53.640;10.578;2023-04-28T05:30:40;100988.72;;;24.40;31.51
59240;BME280;45010;53.640;10.578;2023-04-28T05:33:40;100989.75;;;24.39;31.48
59240;BME280;45010;53.640;10.578;2023-04-28T05:36:41;100958.59;;;24.21;31.58
59240;BME280;45010;53.640;10.578;2023-04-28T05:39:41;100987.09;;;24.39;31.32
59240;BME280;45010;53.640;10.578;2023-04-28T05:42:42;100993.25;;;24.39;31.48
59240;BME280;45010;53.640;10.578;2023-04-28T05:45:42;100990.78;;;24.38;31.48
59240;BME280;45010;53.640;10.578;2023-04-28T05:48:44;100982.81;;;24.38;31.44
59240;BME280;45010;53.640;10.578;2023-04-28T05:51:44;100985.47;;;24.38;31.37
59240;BME280;45010;53.640;10.578;2023-04-28T05:54:45;100989.19;;;24.37;31.52
59240;BME280;45010;53.640;10.578;2023-04-28T05:57:45;100984.63;;;24.37;31.51
59240;BME280;45010;53.640;10.578;2023-04-28T06:00:45;100983.00;;;24.36;31.44
59240;BME280;45010;53.640;10.578;2023-04-28T06:03:46;100967.13;;;24.29;31.27
59240;BME280;45010;53.640;10.578;2023-04-28T06:06:46;100983.00;;;24.36;31.61
59240;BME280;45010;53.640;10.578;2023-04-28T06:09:46;100972.13;;;24.38;31.51
59240;BME280;45010;53.640;10.578;2023-04-28T06:12:47;100945.50;;;24.19;31.53
59240;BME280;45010;53.640;10.578;2023-04-28T06:15:47;100975.59;;;24.38;31.67
59240;BME280;45010;53.640;10.578;2023-04-28T06:18:48;100944.47;;;24.20;31.57
59240;BME280;45010;53.640;10.578;2023-04-28T06:21:48;100965.75;;;24.39;31.94
59240;BME280;45010;53.640;10.578;2023-04-28T06:24:52;100956.72;;;24.40;31.67
59240;BME280;45010;53.640;10.578;2023-04-28T06:27:52;100955.94;;;24.39;31.58
59240;BME280;45010;53.640;10.578;2023-04-28T06:30:52;100959.38;;;24.40;32.29
59240;BME280;45010;53.640;10.578;2023-04-28T06:33:53;100959.38;;;24.40;31.94
59240;BME280;45010;53.640;10.578;2023-04-28T06:36:54;100954.88;;;24.40;32.01
59240;BME280;45010;53.640;10.578;2023-04-28T06:39:55;100952.22;;;24.40;31.90
59240;BME280;45010;53.640;10.578;2023-04-28T06:42:55;100953.00;;;24.41;31.93
59240;BME280;45010;53.640;10.578;2023-04-28T06:45:55;100946.06;;;24.40;31.94
59240;BME280;45010;53.640;10.578;2023-04-28T06:48:56;100953.84;;;24.41;32.07
59240;BME280;45010;53.640;10.578;2023-04-28T06:51:56;100956.28;;;24.43;31.93
59240;BME280;45010;53.640;10.578;2023-04-28T06:54:56;100947.69;;;24.41;32.55
59240;BME280;45010;53.640;10.578;2023-04-28T06:57:57;100946.66;;;24.42;32.69
59240;BME280;45010;53.640;10.578;2023-04-28T07:00:57;100946.22;;;24.45;32.80
59240;BME280;45010;53.640;10.578;2023-04-28T07:03:57;100938.22;;;24.45;32.85
59240;BME280;45010;53.640;10.578;2023-04-28T07:06:58;100932.09;;;24.44;32.94
59240;BME280;45010;53.640;10.578;2023-04-28T07:09:58;100933.09;;;24.43;33.17
59240;BME280;45010;53.640;10.578;2023-04-28T07:12:59;100921.28;;;24.39;33.34
59240;BME280;45010;53.640;10.578;2023-04-28T07:16:00;100934.06;;;24.49;33.36
59240;BME280;45010;53.640;10.578;2023-04-28T07:19:01;100924.19;;;24.50;33.20
59240;BME280;45010;53.640;10.578;2023-04-28T07:22:01;100926.66;;;24.51;33.47
59240;BME280;45010;53.640;10.578;2023-04-28T07:25:02;100926.78;;;24.56;33.49
59240;BME280;45010;53.640;10.578;2023-04-28T07:28:02;100913.88;;;24.53;33.34
59240;BME280;45010;53.640;10.578;2023-04-28T07:31:03;100920.53;;;24.63;33.47
59240;BME280;45010;53.640;10.578;2023-04-28T07:34:03;100912.09;;;24.66;33.22
59240;BME280;45010;53.640;10.578;2023-04-28T07:37:03;100896.53;;;24.63;33.34
59240;BME280;45010;53.640;10.578;2023-04-28T07:40:05;100904.91;;;24.66;33.19
59240;BME280;45010;53.640;10.578;2023-04-28T07:43:06;100911.31;;;24.77;33.03
59240;BME280;45010;53.640;10.578;2023-04-28T07:46:06;100916.19;;;24.80;32.91
59240;BME280;45010;53.640;10.578;2023-04-28T07:49:07;100913.91;;;24.84;33.11
59240;BME280;45010;53.640;10.578;2023-04-28T07:52:08;100912.66;;;24.87;32.89
59240;BME280;45010;53.640;10.578;2023-04-28T07:55:09;100912.19;;;24.90;32.84
59240;BME280;45010;53.640;10.578;2023-04-28T07:58:09;100902.91;;;24.92;32.61
59240;BME280;45010;53.640;10.578;2023-04-28T08:01:10;100903.28;;;24.96;32.36
59240;BME280;45010;53.640;10.578;2023-04-28T08:04:11;100895.28;;;24.96;32.88
59240;BME280;45010;53.640;10.578;2023-04-28T08:07:11;100891.09;;;25.00;33.06
59240;BME280;45010;53.640;10.578;2023-04-28T08:10:12;100894.00;;;25.10;32.85
59240;BME280;45010;53.640;10.578;2023-04-28T08:13:12;100896.22;;;25.14;32.84
59240;BME280;45010;53.640;10.578;2023-04-28T08:16:15;100882.28;;;25.11;32.93
59240;BME280;45010;53.640;10.578;2023-04-28T08:19:16;100891.59;;;25.21;32.42
59240;BME280;45010;53.640;10.578;2023-04-28T08:22:16;100883.09;;;25.24;32.38
59240;BME280;45010;53.640;10.578;2023-04-28T08:25:16;100886.94;;;25.28;32.49
59240;BME280;45010;53.640;10.578;2023-04-28T08:28:17;100887.53;;;25.30;32.45
59240;BME280;45010;53.640;10.578;2023-04-28T08:31:17;100879.06;;;25.33;32.24
59240;BME280;45010;53.640;10.578;2023-04-28T08:34:18;100878.47;;;25.31;32.18
59240;BME280;45010;53.640;10.578;2023-04-28T08:37:18;100883.47;;;25.39;32.31
59240;BME280;45010;53.640;10.578;2023-04-28T08:40:19;100882.31;;;25.35;32.20
59240;BME280;45010;53.640;10.578;2023-04-28T08:43:19;100889.94;;;25.44;32.17
59240;BME280;45010;53.640;10.578;2023-04-28T08:46:21;100878.34;;;25.50;32.17
59240;BME280;45010;53.640;10.578;2023-04-28T08:49:28;100891.13;;;25.48;32.11
59240;BME280;45010;53.640;10.578;2023-04-28T08:52:33;100888.44;;;25.48;31.88
59240;BME280;45010;53.640;10.578;2023-04-28T08:55:34;100881.25;;;25.48;31.50
59240;BME280;45010;53.640;10.578;2023-04-28T08:58:35;100878.34;;;25.50;31.40
59240;BME280;45010;53.640;10.578;2023-04-28T09:01:36;100881.59;;;25.52;31.58
59240;BME280;45010;53.640;10.578;2023-04-28T09:04:36;100860.47;;;25.50;31.49
59240;BME280;45010;53.640;10.578;2023-04-28T09:07:37;100854.00;;;25.58;31.66
59240;BME280;45010;53.640;10.578;2023-04-28T09:10:38;100855.59;;;25.59;31.40
59240;BME280;45010;53.640;10.578;2023-04-28T09:13:38;100849.09;;;25.55;31.59
59240;BME280;45010;53.640;10.578;2023-04-28T09:16:39;100846.09;;;25.63;31.49
59240;BME280;45010;53.640;10.578;2023-04-28T09:19:40;100847.72;;;25.64;31.23
59240;BME280;45010;53.640;10.578;2023-04-28T09:22:42;100850.16;;;25.66;31.28
59240;BME280;45010;53.640;10.578;2023-04-28T09:26:04;100854.22;;;25.69;31.23
59240;BME280;45010;53.640;10.578;2023-04-28T09:29:11;100848.88;;;25.69;31.36
59240;BME280;45010;53.640;10.578;2023-04-28T09:32:20;100852.09;;;25.71;31.15
59240;BME280;45010;53.640;10.578;2023-04-28T09:35:38;100833.41;;;25.71;30.78
59240;BME280;45010;53.640;10.578;2023-04-28T09:38:43;100803.16;;;25.53;31.13
59240;BME280;45010;53.640;10.578;2023-04-28T09:41:44;100831.91;;;25.75;31.03
59240;BME280;45010;53.640;10.578;2023-04-28T09:44:52;100827.13;;;25.77;31.16
59240;BME280;45010;53.640;10.578;2023-04-28T09:47:52;100820.72;;;25.78;31.15
59240;BME280;45010;53.640;10.578;2023-04-28T09:51:07;100824.78;;;25.81;31.01
59240;BME280;45010;53.640;10.578;2023-04-28T09:54:09;100821.88;;;25.82;30.96
59240;BME280;45010;53.640;10.578;2023-04-28T09:57:10;100818.16;;;25.83;31.09
59240;BME280;45010;53.640;10.578;2023-04-28T10:00:11;100811.75;;;25.84;30.83
59240;BME280;45010;53.640;10.578;2023-04-28T10:03:13;100810.72;;;25.85;30.82
59240;BME280;45010;53.640;10.578;2023-04-28T10:06:14;100804.31;;;25.86;30.92
59240;BME280;45010;53.640;10.578;2023-04-28T10:09:15;100811.88;;;25.89;30.90
59240;BME280;45010;53.640;10.578;2023-04-28T10:12:17;100793.88;;;25.85;31.08
59240;BME280;45010;53.640;10.578;2023-04-28T10:15:17;100801.19;;;25.89;30.67
59240;BME280;45010;53.640;10.578;2023-04-28T10:18:18;100776.47;;;25.82;30.94
59240;BME280;45010;53.640;10.578;2023-04-28T10:21:20;100794.53;;;25.92;31.00
59240;BME280;45010;53.640;10.578;2023-04-28T10:24:28;100790.03;;;25.92;30.72
59240;BME280;45010;53.640;10.578;2023-04-28T10:27:30;100791.66;;;25.94;30.68
59240;BME280;45010;53.640;10.578;2023-04-28T10:30:32;100787.91;;;25.95;30.67
59240;BME280;45010;53.640;10.578;2023-04-28T10:33:33;100780.47;;;25.97;30.37
59240;BME280;45010;53.640;10.578;2023-04-28T10:46:25;100765.25;;;25.97;30.54
59240;BME280;45010;53.640;10.578;2023-04-28T10:52:55;100757.78;;;25.99;30.59
59240;BME280;45010;53.640;10.578;2023-04-28T10:56:04;100741.66;;;25.94;30.83
59240;BME280;45010;53.640;10.578;2023-04-28T10:59:24;100741.44;;;25.96;30.25
59240;BME280;45010;53.640;10.578;2023-04-28T11:02:35;100747.44;;;26.03;30.48
59240;BME280;45010;53.640;10.578;2023-04-28T11:05:36;100745.34;;;26.05;30.52
59240;BME280;45010;53.640;10.578;2023-04-28T11:08:37;100748.03;;;26.05;30.50
59240;BME280;45010;53.640;10.578;2023-04-28T11:11:38;100740.00;;;26.05;30.25
59240;BME280;45010;53.640;10.578;2023-04-28T11:14:39;100746.97;;;26.06;30.36
59240;BME280;45010;53.640;10.578;2023-04-28T11:17:40;100737.81;;;26.02;30.33
59240;BME280;45010;53.640;10.578;2023-04-28T11:20:42;100744.03;;;26.08;30.38
59240;BME280;45010;53.640;10.578;2023-04-28T11:23:43;100734.16;;;26.08;30.13
59240;BME280;45010;53.640;10.578;2023-04-28T11:26:44;100735.00;;;26.09;30.42
59240;BME280;45010;53.640;10.578;2023-04-28T11:29:44;100732.06;;;26.10;30.22
59240;BME280;45010;53.640;10.578;2023-04-28T11:32:48;100732.06;;;26.10;30.22
59240;BME280;45010;53.640;10.578;2023-04-28T11:35:48;100728.34;;;26.11;30.18
59240;BME280;45010;53.640;10.578;2023-04-28T11:38:49;100733.69;;;26.11;30.14
59240;BME280;45010;53.640;10.578;2023-04-28T11:41:50;100719.28;;;26.12;29.90
59240;BME280;45010;53.640;10.578;2023-04-28T11:44:51;100706.63;;;26.08;30.26
59240;BME280;45010;53.640;10.578;2023-04-28T11:47:51;100710.09;;;26.08;30.31
59240;BME280;45010;53.640;10.578;2023-04-28T11:50:52;100708.09;;;26.15;30.15
59240;BME280;45010;53.640;10.578;2023-04-28T11:53:52;100713.44;;;26.15;30.14
59240;BME280;45010;53.640;10.578;2023-04-28T11:56:54;100683.94;;;26.10;30.25
59240;BME280;45010;53.640;10.578;2023-04-28T12:00:15;100696.34;;;26.16;30.08
59240;BME280;45010;53.640;10.578;2023-04-28T12:03:20;100691.72;;;26.12;30.30
59240;BME280;45010;53.640;10.578;2023-04-28T12:06:21;100668.09;;;26.03;30.06
59240;BME280;45010;53.640;10.578;2023-04-28T12:09:21;100690.75;;;26.18;30.33
59240;BME280;45010;53.640;10.578;2023-04-28T12:12:29;100685.41;;;26.18;29.98
59240;BME280;45010;53.640;10.578;2023-04-28T12:15:40;100681.69;;;26.19;30.14
59240;BME280;45010;53.640;10.578;2023-04-28T12:18:57;100654.00;;;26.08;30.26
59240;BME280;45010;53.640;10.578;2023-04-28T12:21:59;100671.81;;;26.19;30.26
59240;BME280;45010;53.640;10.578;2023-04-28T12:25:07;100661.03;;;26.14;30.09
59240;BME280;45010;53.640;10.578;2023-04-28T12:28:08;100669.13;;;26.19;30.08
59240;BME280;45010;53.640;10.578;2023-04-28T12:31:09;100665.41;;;26.21;30.26
59240;BME280;45010;53.640;10.578;2023-04-28T12:34:10;100659.50;;;26.36;29.91
59240;BME280;45010;53.640;10.578;2023-04-28T12:37:10;100659.00;;;26.22;29.39
59240;BME280;45010;53.640;10.578;2023-04-28T12:40:11;100652.53;;;26.17;29.02
59240;BME280;45010;53.640;10.578;2023-04-28T12:43:14;100652.53;;;26.17;29.11
59240;BME280;45010;53.640;10.578;2023-04-28T12:46:14;100649.59;;;26.19;28.58
59240;BME280;45010;53.640;10.578;2023-04-28T12:49:15;100654.94;;;26.19;28.38
59240;BME280;45010;53.640;10.578;2023-04-28T12:52:15;100642.41;;;26.19;28.25
59240;BME280;45010;53.640;10.578;2023-04-28T12:55:15;100640.72;;;26.13;27.75
59240;BME280;45010;53.640;10.578;2023-04-28T12:58:16;100639.72;;;26.19;27.69
59240;BME280;45010;53.640;10.578;2023-04-28T13:01:17;100619.16;;;26.03;27.73
59240;BME280;45010;53.640;10.578;2023-04-28T13:04:18;100610.91;;;26.04;27.40
59240;BME280;45010;53.640;10.578;2023-04-28T13:07:18;100630.88;;;26.19;27.18
59240;BME280;45010;53.640;10.578;2023-04-28T13:10:18;100629.50;;;26.16;27.36
59240;BME280;45010;53.640;10.578;2023-04-28T13:13:21;100624.16;;;26.16;26.99
59240;BME280;45010;53.640;10.578;2023-04-28T13:16:22;100622.31;;;26.17;26.94
59240;BME280;45010;53.640;10.578;2023-04-28T13:19:24;100614.81;;;26.14;26.74
59240;BME280;45010;53.640;10.578;2023-04-28T13:22:26;100608.13;;;26.16;26.97
59240;BME280;45010;53.640;10.578;2023-04-28T13:25:26;100617.22;;;26.15;26.92
59240;BME280;45010;53.640;10.578;2023-04-28T13:28:27;100606.78;;;26.14;26.94
59240;BME280;45010;53.640;10.578;2023-04-28T13:31:27;100605.41;;;26.11;27.00
59240;BME280;45010;53.640;10.578;2023-04-28T13:34:29;100603.75;;;26.10;26.68
59240;BME280;45010;53.640;10.578;2023-04-28T13:37:30;100609.63;;;26.07;26.98
59240;BME280;45010;53.640;10.578;2023-04-28T13:40:31;100602.66;;;26.06;27.21
59240;BME280;45010;53.640;10.578;2023-04-28T13:43:32;100597.31;;;26.06;26.97
59240;BME280;45010;53.640;10.578;2023-04-28T13:46:33;100595.69;;;26.05;27.13
59240;BME280;45010;53.640;10.578;2023-04-28T13:49:33;100576.91;;;26.00;27.28
59240;BME280;45010;53.640;10.578;2023-04-28T13:52:33;100587.41;;;26.06;27.44
59240;BME280;45010;53.640;10.578;2023-04-28T13:55:34;100586.63;;;26.06;27.37
59240;BME280;45010;53.640;10.578;2023-04-28T13:58:34;100582.34;;;26.05;27.38
59240;BME280;45010;53.640;10.578;2023-04-28T14:01:34;100579.06;;;26.03;27.46
59240;BME280;45010;53.640;10.578;2023-04-28T14:04:35;100571.88;;;26.03;27.53
59240;BME280;45010;53.640;10.578;2023-04-28T14:07:35;100570.25;;;26.02;27.96
59240;BME280;45010;53.640;10.578;2023-04-28T14:10:36;100572.94;;;26.02;27.53
59240;BME280;45010;53.640;10.578;2023-04-28T14:13:37;100559.72;;;25.96;28.07
59240;BME280;45010;53.640;10.578;2023-04-28T14:16:37;100568.97;;;26.05;28.06
59240;BME280;45010;53.640;10.578;2023-04-28T14:19:37;100563.63;;;26.05;28.12
59240;BME280;45010;53.640;10.578;2023-04-28T14:22:38;100559.31;;;26.04;27.99
59240;BME280;45010;53.640;10.578;2023-04-28T14:25:39;100558.28;;;26.05;28.18
59240;BME280;45010;53.640;10.578;2023-04-28T14:28:39;100554.78;;;26.04;28.25
59240;BME280;45010;53.640;10.578;2023-04-28T14:31:41;100546.78;;;26.04;27.94
59240;BME280;45010;53.640;10.578;2023-04-28T14:34:41;100551.28;;;26.04;27.94
59240;BME280;45010;53.640;10.578;2023-04-28T14:37:42;100551.28;;;26.04;28.10
59240;BME280;45010;53.640;10.578;2023-04-28T14:40:42;100545.16;;;26.03;28.27
59240;BME280;45010;53.640;10.578;2023-04-28T14:43:43;100532.47;;;25.94;28.36
59240;BME280;45010;53.640;10.578;2023-04-28T14:46:43;100542.72;;;26.02;28.29
59240;BME280;45010;53.640;10.578;2023-04-28T14:49:46;100537.38;;;26.02;28.27
59240;BME280;45010;53.640;10.578;2023-04-28T14:52:46;100537.88;;;25.99;28.32
59240;BME280;45010;53.640;10.578;2023-04-28T14:55:47;100541.09;;;26.01;28.38
59240;BME280;45010;53.640;10.578;2023-04-28T14:58:47;100539.50;;;26.00;28.62
59240;BME280;45010;53.640;10.578;2023-04-28T15:01:48;100541.09;;;26.01;28.66
59240;BME280;45010;53.640;10.578;2023-04-28T15:04:54;100528.00;;;25.99;28.71
59240;BME280;45010;53.640;10.578;2023-04-28T15:07:55;100523.47;;;26.00;28.89
59240;BME280;45010;53.640;10.578;2023-04-28T15:10:56;100519.97;;;25.99;28.69
59240;BME280;45010;53.640;10.578;2023-04-28T15:13:56;100518.13;;;26.00;28.73
59240;BME280;45010;53.640;10.578;2023-04-28T15:16:58;100515.38;;;25.95;28.69
59240;BME280;45010;53.640;10.578;2023-04-28T15:19:59;100518.91;;;26.00;28.95
59240;BME280;45010;53.640;10.578;2023-04-28T15:22:59;100521.84;;;25.99;28.94
59240;BME280;45010;53.640;10.578;2023-04-28T15:26:00;100512.78;;;26.00;29.08
59240;BME280;45010;53.640;10.578;2023-04-28T15:29:00;100498.53;;;25.94;29.02
59240;BME280;45010;53.640;10.578;2023-04-28T15:32:00;100514.63;;;25.99;28.94
59240;BME280;45010;53.640;10.578;2023-04-28T15:35:01;100507.44;;;26.00;29.05
59240;BME280;45010;53.640;10.578;2023-04-28T15:38:02;100498.84;;;25.98;29.15
59240;BME280;45010;53.640;10.578;2023-04-28T15:41:02;100495.13;;;25.99;29.39
59240;BME280;45010;53.640;10.578;2023-04-28T15:44:02;100497.22;;;25.97;29.41
59240;BME280;45010;53.640;10.578;2023-04-28T15:47:03;100495.13;;;25.99;29.53
59240;BME280;45010;53.640;10.578;2023-04-28T15:50:04;100488.16;;;25.98;29.28